sensor_id;sensor_type;location;lat;lon;timestamp;P1;durP1;ratioP1;P2;durP2;ratioP2
75437;SDS011;64015;49.392;15.582;2023-07-13T00:01:39;10.27;;;6.72;;
75437;SDS011;64015;49.392;15.582;2023-07-13T00:04:05;7.30;;;5.47;;
75437;SDS011;64015;49.392;15.582;2023-07-13T00:06:31;8.15;;;5.57;;
75437;SDS011;64015;49.392;15.582;2023-07-13T00:08:58;8.68;;;5.53;;
75437;SDS011;64015;49.392;15.582;2023-07-13T00:11:24;7.70;;;5.72;;
75437;SDS011;64015;49.392;15.582;2023-07-13T00:13:50;9.20;;;6.05;;
75437;SDS011;64015;49.392;15.582;2023-07-13T00:16:16;11.10;;;5.80;;
75437;SDS011;64015;49.392;15.582;2023-07-13T00:18:44;8.73;;;5.93;;
75437;SDS011;64015;49.392;15.582;2023-07-13T00:21:10;8.85;;;5.30;;
75437;SDS011;64015;49.392;15.582;2023-07-13T00:23:37;9.15;;;5.93;;
75437;SDS011;64015;49.392;15.582;2023-07-13T00:26:05;11.05;;;6.20;;
75437;SDS011;64015;49.392;15.582;2023-07-13T00:28:33;8.27;;;6.07;;
75437;SDS011;64015;49.392;15.582;2023-07-13T00:30:59;10.63;;;6.05;;
75437;SDS011;64015;49.392;15.582;2023-07-13T00:35:53;8.15;;;5.50;;
75437;SDS011;64015;49.392;15.582;2023-07-13T00:38:19;7.18;;;5.18;;
75437;SDS011;64015;49.392;15.582;2023-07-13T00:40:45;7.15;;;5.03;;
75437;SDS011;64015;49.392;15.582;2023-07-13T00:43:14;7.50;;;4.93;;
75437;SDS011;64015;49.392;15.582;2023-07-13T00:48:11;8.45;;;5.35;;
75437;SDS011;64015;49.392;15.582;2023-07-13T00:50:43;8.90;;;5.65;;
75437;SDS011;64015;49.392;15.582;2023-07-13T00:53:11;9.55;;;4.80;;
75437;SDS011;64015;49.392;15.582;2023-07-13T00:55:37;7.78;;;4.85;;
75437;SDS011;64015;49.392;15.582;2023-07-13T00:58:04;8.00;;;4.93;;
75437;SDS011;64015;49.392;15.582;2023-07-13T01:00:31;7.40;;;5.30;;
75437;SDS011;64015;49.392;15.582;2023-07-13T01:03:01;7.40;;;4.57;;
75437;SDS011;64015;49.392;15.582;2023-07-13T01:05:30;6.40;;;4.80;;
75437;SDS011;64015;49.392;15.582;2023-07-13T01:07:58;8.20;;;5.20;;
75437;SDS011;64015;49.392;15.582;2023-07-13T01:13:06;7.88;;;4.60;;
75437;SDS011;64015;49.392;15.582;2023-07-13T01:15:40;8.13;;;4.43;;
75437;SDS011;64015;49.392;15.582;2023-07-13T01:18:14;5.90;;;4.65;;
75437;SDS011;64015;49.392;15.582;2023-07-13T01:20:56;8.25;;;5.10;;
75437;SDS011;64015;49.392;15.582;2023-07-13T01:23:28;8.10;;;4.70;;
75437;SDS011;64015;49.392;15.582;2023-07-13T01:25:55;7.57;;;5.10;;
75437;SDS011;64015;49.392;15.582;2023-07-13T01:28:23;7.45;;;5.10;;
75437;SDS011;64015;49.392;15.582;2023-07-13T01:30:52;8.32;;;4.90;;
75437;SDS011;64015;49.392;15.582;2023-07-13T01:33:20;8.48;;;5.10;;
75437;SDS011;64015;49.392;15.582;2023-07-13T01:35:45;7.47;;;4.75;;
75437;SDS011;64015;49.392;15.582;2023-07-13T01:38:14;6.90;;;4.53;;
75437;SDS011;64015;49.392;15.582;2023-07-13T01:40:40;8.02;;;5.07;;
75437;SDS011;64015;49.392;15.582;2023-07-13T01:43:06;6.55;;;4.75;;
75437;SDS011;64015;49.392;15.582;2023-07-13T01:45:32;6.97;;;4.75;;
75437;SDS011;64015;49.392;15.582;2023-07-13T01:47:58;6.97;;;4.90;;
75437;SDS011;64015;49.392;15.582;2023-07-13T01:50:24;6.25;;;4.35;;
75437;SDS011;64015;49.392;15.582;2023-07-13T01:55:16;9.80;;;5.15;;
75437;SDS011;64015;49.392;15.582;2023-07-13T01:57:42;6.07;;;4.75;;
75437;SDS011;64015;49.392;15.582;2023-07-13T02:00:08;8.15;;;5.07;;
75437;SDS011;64015;49.392;15.582;2023-07-13T02:02:36;7.40;;;4.18;;
75437;SDS011;64015;49.392;15.582;2023-07-13T02:05:01;7.00;;;5.07;;
75437;SDS011;64015;49.392;15.582;2023-07-13T02:07:28;7.85;;;5.10;;
75437;SDS011;64015;49.392;15.582;2023-07-13T02:09:53;7.82;;;4.78;;
75437;SDS011;64015;49.392;15.582;2023-07-13T02:12:19;9.57;;;4.97;;
75437;SDS011;64015;49.392;15.582;2023-07-13T02:14:45;6.85;;;4.50;;
75437;SDS011;64015;49.392;15.582;2023-07-13T02:17:10;10.88;;;4.82;;
75437;SDS011;64015;49.392;15.582;2023-07-13T02:19:37;6.60;;;4.63;;
75437;SDS011;64015;49.392;15.582;2023-07-13T02:22:03;6.22;;;4.40;;
75437;SDS011;64015;49.392;15.582;2023-07-13T02:24:29;7.50;;;4.75;;
75437;SDS011;64015;49.392;15.582;2023-07-13T02:26:55;7.10;;;4.80;;
75437;SDS011;64015;49.392;15.582;2023-07-13T02:29:20;6.55;;;4.82;;
75437;SDS011;64015;49.392;15.582;2023-07-13T02:31:46;6.80;;;4.55;;
75437;SDS011;64015;49.392;15.582;2023-07-13T02:34:11;7.43;;;4.72;;
75437;SDS011;64015;49.392;15.582;2023-07-13T02:36:37;9.60;;;4.53;;
75437;SDS011;64015;49.392;15.582;2023-07-13T02:39:03;6.57;;;4.40;;
75437;SDS011;64015;49.392;15.582;2023-07-13T02:41:31;7.10;;;4.60;;
75437;SDS011;64015;49.392;15.582;2023-07-13T02:43:59;7.22;;;4.70;;
75437;SDS011;64015;49.392;15.582;2023-07-13T02:46:32;9.02;;;4.75;;
75437;SDS011;64015;49.392;15.582;2023-07-13T02:49:00;8.77;;;4.22;;
75437;SDS011;64015;49.392;15.582;2023-07-13T02:51:26;6.97;;;4.40;;
75437;SDS011;64015;49.392;15.582;2023-07-13T02:53:51;6.78;;;4.32;;
75437;SDS011;64015;49.392;15.582;2023-07-13T02:56:18;6.85;;;4.25;;
75437;SDS011;64015;49.392;15.582;2023-07-13T02:58:47;6.60;;;4.45;;
75437;SDS011;64015;49.392;15.582;2023-07-13T03:01:13;7.00;;;4.00;;
75437;SDS011;64015;49.392;15.582;2023-07-13T03:03:47;8.85;;;4.38;;
75437;SDS011;64015;49.392;15.582;2023-07-13T03:06:15;7.50;;;4.00;;
75437;SDS011;64015;49.392;15.582;2023-07-13T03:08:42;6.22;;;3.83;;
75437;SDS011;64015;49.392;15.582;2023-07-13T03:11:10;5.88;;;4.00;;
75437;SDS011;64015;49.392;15.582;2023-07-13T03:13:39;7.25;;;3.88;;
75437;SDS011;64015;49.392;15.582;2023-07-13T03:16:06;5.40;;;3.70;;
75437;SDS011;64015;49.392;15.582;2023-07-13T03:18:32;5.15;;;3.25;;
75437;SDS011;64015;49.392;15.582;2023-07-13T03:20:59;7.72;;;3.67;;
75437;SDS011;64015;49.392;15.582;2023-07-13T03:23:24;6.40;;;4.43;;
75437;SDS011;64015;49.392;15.582;2023-07-13T03:26:00;5.68;;;3.33;;
75437;SDS011;64015;49.392;15.582;2023-07-13T03:28:28;7.00;;;4.10;;
75437;SDS011;64015;49.392;15.582;2023-07-13T03:31:00;6.10;;;3.90;;
75437;SDS011;64015;49.392;15.582;2023-07-13T03:33:28;4.85;;;3.50;;
75437;SDS011;64015;49.392;15.582;2023-07-13T03:35:54;9.38;;;3.50;;
75437;SDS011;64015;49.392;15.582;2023-07-13T03:38:19;7.80;;;4.20;;
75437;SDS011;64015;49.392;15.582;2023-07-13T03:40:45;6.90;;;3.70;;
75437;SDS011;64015;49.392;15.582;2023-07-13T03:43:10;6.07;;;3.35;;
75437;SDS011;64015;49.392;15.582;2023-07-13T03:45:37;6.55;;;3.50;;
75437;SDS011;64015;49.392;15.582;2023-07-13T03:48:03;5.10;;;3.55;;
75437;SDS011;64015;49.392;15.582;2023-07-13T03:50:31;5.97;;;3.75;;
75437;SDS011;64015;49.392;15.582;2023-07-13T03:52:59;5.38;;;3.38;;
75437;SDS011;64015;49.392;15.582;2023-07-13T03:55:26;8.05;;;3.92;;
75437;SDS011;64015;49.392;15.582;2023-07-13T03:57:53;6.53;;;3.90;;
75437;SDS011;64015;49.392;15.582;2023-07-13T04:00:22;6.53;;;4.07;;
75437;SDS011;64015;49.392;15.582;2023-07-13T04:02:48;6.75;;;3.40;;
75437;SDS011;64015;49.392;15.582;2023-07-13T04:05:15;7.60;;;3.63;;
75437;SDS011;64015;49.392;15.582;2023-07-13T04:07:40;5.85;;;3.97;;
75437;SDS011;64015;49.392;15.582;2023-07-13T04:10:06;5.40;;;3.60;;
75437;SDS011;64015;49.392;15.582;2023-07-13T04:12:33;7.93;;;3.72;;
75437;SDS011;64015;49.392;15.582;2023-07-13T04:14:58;6.30;;;4.10;;
75437;SDS011;64015;49.392;15.582;2023-07-13T04:17:24;6.82;;;4.10;;
75437;SDS011;64015;49.392;15.582;2023-07-13T04:19:50;7.47;;;3.50;;
75437;SDS011;64015;49.392;15.582;2023-07-13T04:22:16;6.78;;;3.38;;
75437;SDS011;64015;49.392;15.582;2023-07-13T04:24:41;8.10;;;4.10;;
75437;SDS011;64015;49.392;15.582;2023-07-13T04:27:07;6.32;;;3.70;;
75437;SDS011;64015;49.392;15.582;2023-07-13T04:29:33;8.27;;;4.03;;
75437;SDS011;64015;49.392;15.582;2023-07-13T04:31:58;5.68;;;3.47;;
75437;SDS011;64015;49.392;15.582;2023-07-13T04:34:24;7.35;;;4.53;;
75437;SDS011;64015;49.392;15.582;2023-07-13T04:36:50;6.15;;;3.33;;
75437;SDS011;64015;49.392;15.582;2023-07-13T04:39:16;6.75;;;3.92;;
75437;SDS011;64015;49.392;15.582;2023-07-13T04:41:41;7.28;;;3.80;;
75437;SDS011;64015;49.392;15.582;2023-07-13T04:44:07;5.28;;;3.42;;
75437;SDS011;64015;49.392;15.582;2023-07-13T04:46:33;5.80;;;3.47;;
75437;SDS011;64015;49.392;15.582;2023-07-13T04:48:59;7.68;;;3.75;;
75437;SDS011;64015;49.392;15.582;2023-07-13T04:51:25;5.32;;;3.85;;
75437;SDS011;64015;49.392;15.582;2023-07-13T04:53:51;8.38;;;3.50;;
75437;SDS011;64015;49.392;15.582;2023-07-13T04:56:17;5.90;;;3.25;;
75437;SDS011;64015;49.392;15.582;2023-07-13T04:58:45;5.80;;;3.60;;
75437;SDS011;64015;49.392;15.582;2023-07-13T05:01:10;5.88;;;3.63;;
75437;SDS011;64015;49.392;15.582;2023-07-13T05:03:38;4.95;;;2.90;;
75437;SDS011;64015;49.392;15.582;2023-07-13T05:06:05;6.05;;;3.10;;
75437;SDS011;64015;49.392;15.582;2023-07-13T05:08:32;7.63;;;3.67;;
75437;SDS011;64015;49.392;15.582;2023-07-13T05:11:01;7.28;;;3.50;;
75437;SDS011;64015;49.392;15.582;2023-07-13T05:13:28;4.85;;;2.90;;
75437;SDS011;64015;49.392;15.582;2023-07-13T05:16:01;5.68;;;3.35;;
75437;SDS011;64015;49.392;15.582;2023-07-13T05:18:29;6.13;;;3.47;;
75437;SDS011;64015;49.392;15.582;2023-07-13T05:20:57;8.07;;;3.78;;
75437;SDS011;64015;49.392;15.582;2023-07-13T05:23:24;6.43;;;3.60;;
75437;SDS011;64015;49.392;15.582;2023-07-13T05:25:49;7.80;;;3.78;;
75437;SDS011;64015;49.392;15.582;2023-07-13T05:28:15;8.43;;;3.55;;
75437;SDS011;64015;49.392;15.582;2023-07-13T05:30:44;6.07;;;2.95;;
75437;SDS011;64015;49.392;15.582;2023-07-13T05:33:11;6.00;;;3.50;;
75437;SDS011;64015;49.392;15.582;2023-07-13T05:35:37;5.32;;;3.63;;
75437;SDS011;64015;49.392;15.582;2023-07-13T05:38:03;5.75;;;3.42;;
75437;SDS011;64015;49.392;15.582;2023-07-13T05:40:29;6.60;;;3.42;;
75437;SDS011;64015;49.392;15.582;2023-07-13T05:42:55;8.07;;;3.63;;
75437;SDS011;64015;49.392;15.582;2023-07-13T05:45:20;7.63;;;3.53;;
75437;SDS011;64015;49.392;15.582;2023-07-13T05:47:46;5.90;;;3.88;;
75437;SDS011;64015;49.392;15.582;2023-07-13T05:50:11;8.05;;;3.50;;
75437;SDS011;64015;49.392;15.582;2023-07-13T05:52:37;5.85;;;3.58;;
75437;SDS011;64015;49.392;15.582;2023-07-13T05:55:03;7.60;;;3.38;;
75437;SDS011;64015;49.392;15.582;2023-07-13T05:57:29;7.20;;;3.33;;
75437;SDS011;64015;49.392;15.582;2023-07-13T05:59:55;5.28;;;3.00;;
75437;SDS011;64015;49.392;15.582;2023-07-13T06:02:21;7.40;;;3.75;;
75437;SDS011;64015;49.392;15.582;2023-07-13T06:04:47;5.07;;;3.80;;
75437;SDS011;64015;49.392;15.582;2023-07-13T06:07:12;5.72;;;3.17;;
75437;SDS011;64015;49.392;15.582;2023-07-13T06:09:38;6.05;;;2.90;;
75437;SDS011;64015;49.392;15.582;2023-07-13T06:12:04;4.50;;;2.88;;
75437;SDS011;64015;49.392;15.582;2023-07-13T06:14:30;7.25;;;3.45;;
75437;SDS011;64015;49.392;15.582;2023-07-13T06:16:56;5.05;;;3.10;;
75437;SDS011;64015;49.392;15.582;2023-07-13T06:19:21;4.85;;;2.95;;
75437;SDS011;64015;49.392;15.582;2023-07-13T06:21:47;6.07;;;3.30;;
75437;SDS011;64015;49.392;15.582;2023-07-13T06:24:13;5.82;;;2.83;;
75437;SDS011;64015;49.392;15.582;2023-07-13T06:26:38;5.38;;;3.35;;
75437;SDS011;64015;49.392;15.582;2023-07-13T06:29:04;5.70;;;2.95;;
75437;SDS011;64015;49.392;15.582;2023-07-13T06:31:30;4.85;;;2.65;;
75437;SDS011;64015;49.392;15.582;2023-07-13T06:33:56;5.03;;;3.13;;
75437;SDS011;64015;49.392;15.582;2023-07-13T06:36:22;5.75;;;3.20;;
75437;SDS011;64015;49.392;15.582;2023-07-13T06:38:47;5.78;;;3.25;;
75437;SDS011;64015;49.392;15.582;2023-07-13T06:41:13;5.40;;;3.20;;
75437;SDS011;64015;49.392;15.582;2023-07-13T06:43:39;5.20;;;3.08;;
75437;SDS011;64015;49.392;15.582;2023-07-13T06:46:05;4.97;;;3.17;;
75437;SDS011;64015;49.392;15.582;2023-07-13T06:48:30;4.20;;;2.97;;
75437;SDS011;64015;49.392;15.582;2023-07-13T06:50:56;4.35;;;2.88;;
75437;SDS011;64015;49.392;15.582;2023-07-13T06:53:22;5.75;;;3.13;;
75437;SDS011;64015;49.392;15.582;2023-07-13T06:55:48;5.60;;;2.90;;
75437;SDS011;64015;49.392;15.582;2023-07-13T06:58:15;4.05;;;2.63;;
75437;SDS011;64015;49.392;15.582;2023-07-13T07:00:42;6.45;;;3.35;;
75437;SDS011;64015;49.392;15.582;2023-07-13T07:03:08;4.72;;;3.35;;
75437;SDS011;64015;49.392;15.582;2023-07-13T07:05:34;5.65;;;3.25;;
75437;SDS011;64015;49.392;15.582;2023-07-13T07:08:00;6.50;;;3.10;;
75437;SDS011;64015;49.392;15.582;2023-07-13T07:10:26;4.80;;;3.10;;
75437;SDS011;64015;49.392;15.582;2023-07-13T07:12:51;5.55;;;2.90;;
75437;SDS011;64015;49.392;15.582;2023-07-13T07:15:17;8.20;;;3.22;;
75437;SDS011;64015;49.392;15.582;2023-07-13T07:17:44;5.18;;;3.17;;
75437;SDS011;64015;49.392;15.582;2023-07-13T07:20:10;5.05;;;3.47;;
75437;SDS011;64015;49.392;15.582;2023-07-13T07:22:36;4.95;;;3.30;;
75437;SDS011;64015;49.392;15.582;2023-07-13T07:25:02;5.75;;;3.75;;
75437;SDS011;64015;49.392;15.582;2023-07-13T07:27:27;7.30;;;3.30;;
75437;SDS011;64015;49.392;15.582;2023-07-13T07:29:53;4.80;;;2.88;;
75437;SDS011;64015;49.392;15.582;2023-07-13T07:32:19;6.55;;;3.22;;
75437;SDS011;64015;49.392;15.582;2023-07-13T07:34:45;8.90;;;3.60;;
75437;SDS011;64015;49.392;15.582;2023-07-13T07:37:12;6.25;;;3.67;;
75437;SDS011;64015;49.392;15.582;2023-07-13T07:39:39;8.70;;;3.75;;
75437;SDS011;64015;49.392;15.582;2023-07-13T07:42:04;8.55;;;3.67;;
75437;SDS011;64015;49.392;15.582;2023-07-13T07:44:33;6.93;;;3.67;;
75437;SDS011;64015;49.392;15.582;2023-07-13T07:47:00;7.75;;;3.85;;
75437;SDS011;64015;49.392;15.582;2023-07-13T07:49:26;12.80;;;4.43;;
75437;SDS011;64015;49.392;15.582;2023-07-13T07:51:52;10.02;;;4.63;;
75437;SDS011;64015;49.392;15.582;2023-07-13T07:54:18;5.53;;;3.60;;
75437;SDS011;64015;49.392;15.582;2023-07-13T07:56:43;6.78;;;3.72;;
75437;SDS011;64015;49.392;15.582;2023-07-13T07:59:09;6.40;;;3.25;;
75437;SDS011;64015;49.392;15.582;2023-07-13T08:01:35;5.90;;;3.55;;
75437;SDS011;64015;49.392;15.582;2023-07-13T08:06:27;7.38;;;3.95;;
75437;SDS011;64015;49.392;15.582;2023-07-13T08:08:54;6.05;;;3.05;;
75437;SDS011;64015;49.392;15.582;2023-07-13T08:11:20;6.13;;;3.10;;
75437;SDS011;64015;49.392;15.582;2023-07-13T08:13:47;4.97;;;3.20;;
75437;SDS011;64015;49.392;15.582;2023-07-13T08:16:14;10.88;;;4.13;;
75437;SDS011;64015;49.392;15.582;2023-07-13T08:18:40;7.75;;;3.65;;
75437;SDS011;64015;49.392;15.582;2023-07-13T08:21:06;5.30;;;3.33;;
75437;SDS011;64015;49.392;15.582;2023-07-13T08:23:33;6.60;;;2.80;;
75437;SDS011;64015;49.392;15.582;2023-07-13T08:26:00;5.18;;;3.15;;
75437;SDS011;64015;49.392;15.582;2023-07-13T08:28:29;5.38;;;2.65;;
75437;SDS011;64015;49.392;15.582;2023-07-13T08:31:01;5.82;;;3.08;;
75437;SDS011;64015;49.392;15.582;2023-07-13T08:33:31;4.95;;;2.60;;
75437;SDS011;64015;49.392;15.582;2023-07-13T08:35:56;7.07;;;3.65;;
75437;SDS011;64015;49.392;15.582;2023-07-13T08:38:22;4.90;;;2.88;;
75437;SDS011;64015;49.392;15.582;2023-07-13T08:40:55;4.65;;;2.60;;
75437;SDS011;64015;49.392;15.582;2023-07-13T08:43:34;5.90;;;2.45;;
75437;SDS011;64015;49.392;15.582;2023-07-13T08:49:03;7.78;;;2.85;;
75437;SDS011;64015;49.392;15.582;2023-07-13T08:51:35;3.95;;;2.30;;
75437;SDS011;64015;49.392;15.582;2023-07-13T08:54:11;4.28;;;2.03;;
75437;SDS011;64015;49.392;15.582;2023-07-13T08:56:43;4.03;;;2.40;;
75437;SDS011;64015;49.392;15.582;2023-07-13T08:59:14;4.97;;;2.35;;
75437;SDS011;64015;49.392;15.582;2023-07-13T09:04:21;4.43;;;2.45;;
75437;SDS011;64015;49.392;15.582;2023-07-13T09:12:12;4.63;;;2.67;;
75437;SDS011;64015;49.392;15.582;2023-07-13T09:14:45;3.30;;;2.33;;
75437;SDS011;64015;49.392;15.582;2023-07-13T09:17:37;4.50;;;2.03;;
75437;SDS011;64015;49.392;15.582;2023-07-13T09:22:54;8.23;;;2.05;;
75437;SDS011;64015;49.392;15.582;2023-07-13T09:27:53;4.65;;;2.38;;
75437;SDS011;64015;49.392;15.582;2023-07-13T09:30:30;5.22;;;2.33;;
75437;SDS011;64015;49.392;15.582;2023-07-13T09:33:01;4.07;;;2.33;;
75437;SDS011;64015;49.392;15.582;2023-07-13T09:35:28;4.88;;;2.47;;
75437;SDS011;64015;49.392;15.582;2023-07-13T09:38:13;4.20;;;2.03;;
75437;SDS011;64015;49.392;15.582;2023-07-13T09:44:29;6.80;;;2.80;;
75437;SDS011;64015;49.392;15.582;2023-07-13T09:46:36;4.00;;;2.33;;
75437;SDS011;64015;49.392;15.582;2023-07-13T09:49:02;4.05;;;2.15;;
75437;SDS011;64015;49.392;15.582;2023-07-13T09:51:28;6.55;;;2.40;;
75437;SDS011;64015;49.392;15.582;2023-07-13T09:53:54;4.97;;;3.38;;
75437;SDS011;64015;49.392;15.582;2023-07-13T09:56:20;6.45;;;2.60;;
75437;SDS011;64015;49.392;15.582;2023-07-13T09:58:47;5.07;;;2.70;;
75437;SDS011;64015;49.392;15.582;2023-07-13T10:01:13;5.10;;;2.90;;
75437;SDS011;64015;49.392;15.582;2023-07-13T10:03:51;5.07;;;3.25;;
75437;SDS011;64015;49.392;15.582;2023-07-13T10:06:20;5.38;;;3.15;;
75437;SDS011;64015;49.392;15.582;2023-07-13T10:13:56;6.32;;;3.03;;
75437;SDS011;64015;49.392;15.582;2023-07-13T10:16:25;6.78;;;3.42;;
75437;SDS011;64015;49.392;15.582;2023-07-13T10:18:58;8.15;;;3.33;;
75437;SDS011;64015;49.392;15.582;2023-07-13T10:21:28;5.97;;;3.03;;
75437;SDS011;64015;49.392;15.582;2023-07-13T10:24:19;5.00;;;3.47;;
75437;SDS011;64015;49.392;15.582;2023-07-13T10:26:55;5.47;;;3.67;;
75437;SDS011;64015;49.392;15.582;2023-07-13T10:29:27;5.78;;;3.60;;
75437;SDS011;64015;49.392;15.582;2023-07-13T10:31:54;6.95;;;3.65;;
75437;SDS011;64015;49.392;15.582;2023-07-13T10:34:22;6.20;;;4.30;;
75437;SDS011;64015;49.392;15.582;2023-07-13T10:36:48;6.18;;;4.32;;
75437;SDS011;64015;49.392;15.582;2023-07-13T10:39:19;5.43;;;4.18;;
75437;SDS011;64015;49.392;15.582;2023-07-13T10:41:49;5.10;;;4.07;;
75437;SDS011;64015;49.392;15.582;2023-07-13T10:44:24;5.65;;;3.85;;
75437;SDS011;64015;49.392;15.582;2023-07-13T10:47:13;5.43;;;3.47;;
75437;SDS011;64015;49.392;15.582;2023-07-13T10:49:41;4.70;;;4.15;;
75437;SDS011;64015;49.392;15.582;2023-07-13T10:52:35;5.80;;;3.55;;
75437;SDS011;64015;49.392;15.582;2023-07-13T10:58:01;15.50;;;4.95;;
75437;SDS011;64015;49.392;15.582;2023-07-13T11:00:31;5.35;;;3.45;;
75437;SDS011;64015;49.392;15.582;2023-07-13T11:03:00;4.70;;;3.67;;
75437;SDS011;64015;49.392;15.582;2023-07-13T11:05:31;8.32;;;3.45;;
75437;SDS011;64015;49.392;15.582;2023-07-13T11:08:04;11.13;;;4.68;;
75437;SDS011;64015;49.392;15.582;2023-07-13T11:10:49;6.38;;;4.28;;
75437;SDS011;64015;49.392;15.582;2023-07-13T11:16:13;4.35;;;3.47;;
75437;SDS011;64015;49.392;15.582;2023-07-13T11:21:29;4.13;;;3.20;;
75437;SDS011;64015;49.392;15.582;2023-07-13T11:26:42;6.60;;;3.47;;
75437;SDS011;64015;49.392;15.582;2023-07-13T11:30:06;6.13;;;3.28;;
75437;SDS011;64015;49.392;15.582;2023-07-13T11:32:01;5.07;;;3.33;;
75437;SDS011;64015;49.392;15.582;2023-07-13T11:34:48;5.13;;;3.30;;
75437;SDS011;64015;49.392;15.582;2023-07-13T11:37:15;4.93;;;3.28;;
75437;SDS011;64015;49.392;15.582;2023-07-13T11:39:44;3.88;;;3.00;;
75437;SDS011;64015;49.392;15.582;2023-07-13T11:42:13;5.15;;;3.25;;
75437;SDS011;64015;49.392;15.582;2023-07-13T11:44:48;4.85;;;2.38;;
75437;SDS011;64015;49.392;15.582;2023-07-13T11:47:19;5.32;;;2.75;;
75437;SDS011;64015;49.392;15.582;2023-07-13T11:49:51;3.80;;;2.83;;
75437;SDS011;64015;49.392;15.582;2023-07-13T11:52:33;4.20;;;3.13;;
75437;SDS011;64015;49.392;15.582;2023-07-13T11:55:03;4.15;;;2.63;;
75437;SDS011;64015;49.392;15.582;2023-07-13T11:57:40;5.15;;;3.00;;
75437;SDS011;64015;49.392;15.582;2023-07-13T12:00:14;5.55;;;2.78;;
75437;SDS011;64015;49.392;15.582;2023-07-13T12:02:47;5.38;;;2.65;;
75437;SDS011;64015;49.392;15.582;2023-07-13T12:05:17;6.43;;;3.42;;
75437;SDS011;64015;49.392;15.582;2023-07-13T12:07:47;4.28;;;2.55;;
75437;SDS011;64015;49.392;15.582;2023-07-13T12:12:57;4.03;;;2.92;;
75437;SDS011;64015;49.392;15.582;2023-07-13T12:18:00;7.32;;;3.50;;
75437;SDS011;64015;49.392;15.582;2023-07-13T12:22:58;5.43;;;3.17;;
75437;SDS011;64015;49.392;15.582;2023-07-13T12:25:24;13.18;;;6.53;;
75437;SDS011;64015;49.392;15.582;2023-07-13T12:27:51;5.03;;;3.00;;
75437;SDS011;64015;49.392;15.582;2023-07-13T12:32:59;3.55;;;2.60;;
75437;SDS011;64015;49.392;15.582;2023-07-13T12:35:28;6.00;;;2.78;;
75437;SDS011;64015;49.392;15.582;2023-07-13T12:37:58;3.60;;;2.42;;
75437;SDS011;64015;49.392;15.582;2023-07-13T12:40:34;4.82;;;2.90;;
75437;SDS011;64015;49.392;15.582;2023-07-13T12:43:02;5.15;;;2.42;;
75437;SDS011;64015;49.392;15.582;2023-07-13T12:45:32;5.15;;;2.70;;
75437;SDS011;64015;49.392;15.582;2023-07-13T12:48:19;3.22;;;2.42;;
75437;SDS011;64015;49.392;15.582;2023-07-13T12:50:46;5.93;;;2.78;;
75437;SDS011;64015;49.392;15.582;2023-07-13T12:53:14;3.83;;;2.60;;
75437;SDS011;64015;49.392;15.582;2023-07-13T12:55:52;2.95;;;2.63;;
75437;SDS011;64015;49.392;15.582;2023-07-13T12:58:26;3.22;;;2.35;;
75437;SDS011;64015;49.392;15.582;2023-07-13T13:00:55;3.97;;;3.13;;
75437;SDS011;64015;49.392;15.582;2023-07-13T13:03:33;6.15;;;2.55;;
75437;SDS011;64015;49.392;15.582;2023-07-13T13:06:05;5.32;;;2.70;;
75437;SDS011;64015;49.392;15.582;2023-07-13T13:08:40;4.50;;;2.30;;
75437;SDS011;64015;49.392;15.582;2023-07-13T13:11:08;4.63;;;2.33;;
75437;SDS011;64015;49.392;15.582;2023-07-13T13:13:34;3.03;;;2.17;;
75437;SDS011;64015;49.392;15.582;2023-07-13T13:16:01;4.03;;;2.15;;
75437;SDS011;64015;49.392;15.582;2023-07-13T13:18:34;2.80;;;2.38;;
75437;SDS011;64015;49.392;15.582;2023-07-13T13:21:01;3.15;;;2.38;;
75437;SDS011;64015;49.392;15.582;2023-07-13T13:23:28;4.43;;;2.17;;
75437;SDS011;64015;49.392;15.582;2023-07-13T13:25:54;3.22;;;2.80;;
75437;SDS011;64015;49.392;15.582;2023-07-13T13:28:20;3.30;;;2.58;;
75437;SDS011;64015;49.392;15.582;2023-07-13T13:30:48;3.47;;;2.10;;
75437;SDS011;64015;49.392;15.582;2023-07-13T13:33:16;3.00;;;2.40;;
75437;SDS011;64015;49.392;15.582;2023-07-13T13:35:44;3.72;;;1.98;;
75437;SDS011;64015;49.392;15.582;2023-07-13T13:38:14;3.67;;;2.35;;
75437;SDS011;64015;49.392;15.582;2023-07-13T13:40:42;3.28;;;2.35;;
75437;SDS011;64015;49.392;15.582;2023-07-13T13:43:22;3.25;;;2.45;;
75437;SDS011;64015;49.392;15.582;2023-07-13T13:45:53;3.65;;;2.45;;
75437;SDS011;64015;49.392;15.582;2023-07-13T13:48:25;4.75;;;2.25;;
75437;SDS011;64015;49.392;15.582;2023-07-13T13:50:57;3.75;;;2.13;;
75437;SDS011;64015;49.392;15.582;2023-07-13T13:53:24;4.00;;;2.47;;
75437;SDS011;64015;49.392;15.582;2023-07-13T13:55:50;2.72;;;1.92;;
75437;SDS011;64015;49.392;15.582;2023-07-13T13:58:17;4.43;;;2.50;;
75437;SDS011;64015;49.392;15.582;2023-07-13T14:00:43;3.75;;;2.45;;
75437;SDS011;64015;49.392;15.582;2023-07-13T14:03:15;3.67;;;1.83;;
75437;SDS011;64015;49.392;15.582;2023-07-13T14:05:46;2.67;;;1.83;;
75437;SDS011;64015;49.392;15.582;2023-07-13T14:08:14;4.85;;;2.05;;
75437;SDS011;64015;49.392;15.582;2023-07-13T14:10:41;2.72;;;2.03;;
75437;SDS011;64015;49.392;15.582;2023-07-13T14:16:09;2.25;;;1.77;;
75437;SDS011;64015;49.392;15.582;2023-07-13T14:18:37;4.15;;;2.35;;
75437;SDS011;64015;49.392;15.582;2023-07-13T14:21:08;2.42;;;1.80;;
75437;SDS011;64015;49.392;15.582;2023-07-13T14:23:45;2.67;;;2.28;;
75437;SDS011;64015;49.392;15.582;2023-07-13T14:26:15;3.67;;;2.08;;
75437;SDS011;64015;49.392;15.582;2023-07-13T14:28:44;4.95;;;2.42;;
75437;SDS011;64015;49.392;15.582;2023-07-13T14:31:13;5.55;;;2.05;;
75437;SDS011;64015;49.392;15.582;2023-07-13T14:33:39;4.85;;;2.30;;
75437;SDS011;64015;49.392;15.582;2023-07-13T14:38:38;3.45;;;2.20;;
75437;SDS011;64015;49.392;15.582;2023-07-13T14:41:04;3.67;;;1.75;;
75437;SDS011;64015;49.392;15.582;2023-07-13T14:43:30;4.93;;;2.22;;
75437;SDS011;64015;49.392;15.582;2023-07-13T14:45:55;3.13;;;2.13;;
75437;SDS011;64015;49.392;15.582;2023-07-13T14:48:22;3.33;;;1.70;;
75437;SDS011;64015;49.392;15.582;2023-07-13T14:50:58;3.50;;;2.05;;
75437;SDS011;64015;49.392;15.582;2023-07-13T14:53:25;3.08;;;2.00;;
75437;SDS011;64015;49.392;15.582;2023-07-13T14:55:53;2.97;;;1.75;;
75437;SDS011;64015;49.392;15.582;2023-07-13T14:58:21;4.53;;;1.85;;
75437;SDS011;64015;49.392;15.582;2023-07-13T15:00:49;3.72;;;2.00;;
75437;SDS011;64015;49.392;15.582;2023-07-13T15:03:23;3.58;;;1.95;;
75437;SDS011;64015;49.392;15.582;2023-07-13T15:05:50;2.92;;;1.83;;
75437;SDS011;64015;49.392;15.582;2023-07-13T15:08:18;3.08;;;1.80;;
75437;SDS011;64015;49.392;15.582;2023-07-13T15:10:44;3.53;;;1.90;;
75437;SDS011;64015;49.392;15.582;2023-07-13T15:13:19;4.00;;;2.15;;
75437;SDS011;64015;49.392;15.582;2023-07-13T15:15:47;3.53;;;2.33;;
75437;SDS011;64015;49.392;15.582;2023-07-13T15:18:15;4.32;;;1.85;;
75437;SDS011;64015;49.392;15.582;2023-07-13T15:20:44;3.70;;;2.47;;
75437;SDS011;64015;49.392;15.582;2023-07-13T15:23:12;3.03;;;2.20;;
75437;SDS011;64015;49.392;15.582;2023-07-13T15:25:41;5.15;;;2.42;;
75437;SDS011;64015;49.392;15.582;2023-07-13T15:28:09;3.35;;;1.92;;
75437;SDS011;64015;49.392;15.582;2023-07-13T15:30:46;3.10;;;2.08;;
75437;SDS011;64015;49.392;15.582;2023-07-13T15:35:44;3.53;;;2.22;;
75437;SDS011;64015;49.392;15.582;2023-07-13T15:38:19;4.93;;;1.95;;
75437;SDS011;64015;49.392;15.582;2023-07-13T15:40:46;4.20;;;2.30;;
75437;SDS011;64015;49.392;15.582;2023-07-13T15:43:14;3.75;;;2.38;;
75437;SDS011;64015;49.392;15.582;2023-07-13T15:45:41;6.90;;;4.53;;
75437;SDS011;64015;49.392;15.582;2023-07-13T15:48:12;8.05;;;5.25;;